sensor_id;sensor_type;location;lat;lon;timestamp;temperature;humidity
29363;DHT22;16349;53.672;10.014;2022-10-31T00:01:45;11.10;99.90
29363;DHT22;16349;53.672;10.014;2022-10-31T00:04:14;11.10;99.90
29363;DHT22;16349;53.672;10.014;2022-10-31T00:06:41;11.00;99.90
29363;DHT22;16349;53.672;10.014;2022-10-31T00:09:09;11.00;99.90
29363;DHT22;16349;53.672;10.014;2022-10-31T00:11:36;11.00;99.90
29363;DHT22;16349;53.672;10.014;2022-10-31T00:14:03;11.10;99.90
29363;DHT22;16349;53.672;10.014;2022-10-31T00:16:31;10.90;99.90
29363;DHT22;16349;53.672;10.014;2022-10-31T00:18:59;11.00;99.90
29363;DHT22;16349;53.672;10.014;2022-10-31T00:21:29;10.70;99.90
29363;DHT22;16349;53.672;10.014;2022-10-31T00:23:57;11.20;99.90
29363;DHT22;16349;53.672;10.014;2022-10-31T00:26:24;11.00;99.90
29363;DHT22;16349;53.672;10.014;2022-10-31T00:28:51;11.10;99.90
29363;DHT22;16349;53.672;10.014;2022-10-31T00:31:18;11.10;99.90
29363;DHT22;16349;53.672;10.014;2022-10-31T00:33:45;11.20;99.90
29363;DHT22;16349;53.672;10.014;2022-10-31T00:36:14;11.10;99.90
29363;DHT22;16349;53.672;10.014;2022-10-31T00:38:43;11.20;99.90
29363;DHT22;16349;53.672;10.014;2022-10-31T00:41:10;11.20;99.90
29363;DHT22;16349;53.672;10.014;2022-10-31T00:43:40;11.30;99.90
29363;DHT22;16349;53.672;10.014;2022-10-31T00:46:08;11.30;99.90
29363;DHT22;16349;53.672;10.014;2022-10-31T00:48:35;11.40;99.90
29363;DHT22;16349;53.672;10.014;2022-10-31T00:51:02;11.30;99.90
29363;DHT22;16349;53.672;10.014;2022-10-31T00:53:29;11.40;99.90
29363;DHT22;16349;53.672;10.014;2022-10-31T00:55:57;11.30;99.90
29363;DHT22;16349;53.672;10.014;2022-10-31T00:58:24;11.20;99.90
29363;DHT22;16349;53.672;10.014;2022-10-31T01:00:51;11.30;99.90
29363;DHT22;16349;53.672;10.014;2022-10-31T01:03:21;11.40;99.90
29363;DHT22;16349;53.672;10.014;2022-10-31T01:05:56;11.40;99.90
29363;DHT22;16349;53.672;10.014;2022-10-31T01:08:23;11.40;99.90
29363;DHT22;16349;53.672;10.014;2022-10-31T01:11:00;11.30;99.90
29363;DHT22;16349;53.672;10.014;2022-10-31T01:13:27;11.30;99.90
29363;DHT22;16349;53.672;10.014;2022-10-31T01:15:54;11.20;99.90
29363;DHT22;16349;53.672;10.014;2022-10-31T01:18:22;11.30;99.90
29363;DHT22;16349;53.672;10.014;2022-10-31T01:20:57;11.20;99.90
29363;DHT22;16349;53.672;10.014;2022-10-31T01:23:24;11.20;99.90
29363;DHT22;16349;53.672;10.014;2022-10-31T01:26:00;11.30;99.90
29363;DHT22;16349;53.672;10.014;2022-10-31T01:28:28;11.50;99.90
29363;DHT22;16349;53.672;10.014;2022-10-31T01:30:55;11.40;99.90
29363;DHT22;16349;53.672;10.014;2022-10-31T01:33:21;11.70;99.90
29363;DHT22;16349;53.672;10.014;2022-10-31T01:35:48;12.00;99.90
29363;DHT22;16349;53.672;10.014;2022-10-31T01:38:15;12.00;99.90
29363;DHT22;16349;53.672;10.014;2022-10-31T01:40:43;12.10;99.90
29363;DHT22;16349;53.672;10.014;2022-10-31T01:43:13;12.10;99.90
29363;DHT22;16349;53.672;10.014;2022-10-31T01:45:40;12.20;99.90
29363;DHT22;16349;53.672;10.014;2022-10-31T01:48:13;12.30;99.90
29363;DHT22;16349;53.672;10.014;2022-10-31T01:50:43;12.30;99.90
29363;DHT22;16349;53.672;10.014;2022-10-31T01:53:12;12.30;99.90
29363;DHT22;16349;53.672;10.014;2022-10-31T01:55:40;12.40;99.90
29363;DHT22;16349;53.672;10.014;2022-10-31T01:58:11;12.50;99.90
29363;DHT22;16349;53.672;10.014;2022-10-31T02:00:41;12.50;99.90
29363;DHT22;16349;53.672;10.014;2022-10-31T02:03:10;12.30;99.90
29363;DHT22;16349;53.672;10.014;2022-10-31T02:05:38;12.40;99.90
29363;DHT22;16349;53.672;10.014;2022-10-31T02:08:06;12.30;99.90
29363;DHT22;16349;53.672;10.014;2022-10-31T02:10:36;12.40;99.90
29363;DHT22;16349;53.672;10.014;2022-10-31T02:13:06;12.40;99.90
29363;DHT22;16349;53.672;10.014;2022-10-31T02:15:44;12.40;99.90
29363;DHT22;16349;53.672;10.014;2022-10-31T02:18:12;12.50;99.90
29363;DHT22;16349;53.672;10.014;2022-10-31T02:20:48;12.40;99.90
29363;DHT22;16349;53.672;10.014;2022-10-31T02:23:33;12.40;99.90
29363;DHT22;16349;53.672;10.014;2022-10-31T02:26:28;12.50;99.90
29363;DHT22;16349;53.672;10.014;2022-10-31T02:29:15;12.40;99.90
29363;DHT22;16349;53.672;10.014;2022-10-31T02:31:50;12.40;99.90
29363;DHT22;16349;53.672;10.014;2022-10-31T02:34:25;12.40;99.90
29363;DHT22;16349;53.672;10.014;2022-10-31T02:36:57;12.40;99.90
29363;DHT22;16349;53.672;10.014;2022-10-31T02:39:27;12.40;99.90
29363;DHT22;16349;53.672;10.014;2022-10-31T02:42:03;12.50;99.90
29363;DHT22;16349;53.672;10.014;2022-10-31T02:44:37;12.60;99.90
29363;DHT22;16349;53.672;10.014;2022-10-31T02:47:09;12.60;99.90
29363;DHT22;16349;53.672;10.014;2022-10-31T02:49:42;12.60;99.90
29363;DHT22;16349;53.672;10.014;2022-10-31T02:52:17;12.60;99.90
29363;DHT22;16349;53.672;10.014;2022-10-31T02:54:46;12.70;99.90
29363;DHT22;16349;53.672;10.014;2022-10-31T02:57:15;12.70;99.90
29363;DHT22;16349;53.672;10.014;2022-10-31T02:59:47;12.60;99.90
29363;DHT22;16349;53.672;10.014;2022-10-31T03:02:40;12.60;99.90
29363;DHT22;16349;53.672;10.014;2022-10-31T03:05:14;12.50;99.90
29363;DHT22;16349;53.672;10.014;2022-10-31T03:07:53;12.50;99.90
29363;DHT22;16349;53.672;10.014;2022-10-31T03:10:32;12.50;99.90
29363;DHT22;16349;53.672;10.014;2022-10-31T03:13:08;12.40;99.90
29363;DHT22;16349;53.672;10.014;2022-10-31T03:15:38;12.30;99.90
29363;DHT22;16349;53.672;10.014;2022-10-31T03:18:10;12.30;99.90
29363;DHT22;16349;53.672;10.014;2022-10-31T03:20:43;12.40;99.90
29363;DHT22;16349;53.672;10.014;2022-10-31T03:23:15;12.30;99.90
29363;DHT22;16349;53.672;10.014;2022-10-31T03:25:49;12.30;99.90
29363;DHT22;16349;53.672;10.014;2022-10-31T03:28:19;12.30;99.90
29363;DHT22;16349;53.672;10.014;2022-10-31T03:30:52;12.20;99.90
29363;DHT22;16349;53.672;10.014;2022-10-31T03:33:26;12.20;99.90
29363;DHT22;16349;53.672;10.014;2022-10-31T03:35:56;12.30;99.90
29363;DHT22;16349;53.672;10.014;2022-10-31T03:38:25;12.30;99.90
29363;DHT22;16349;53.672;10.014;2022-10-31T03:40:54;12.30;99.90
29363;DHT22;16349;53.672;10.014;2022-10-31T03:43:26;12.40;99.90
29363;DHT22;16349;53.672;10.014;2022-10-31T03:45:55;12.40;99.90
29363;DHT22;16349;53.672;10.014;2022-10-31T03:48:24;12.40;99.90
29363;DHT22;16349;53.672;10.014;2022-10-31T03:50:58;12.40;99.90
29363;DHT22;16349;53.672;10.014;2022-10-31T03:53:32;12.40;99.90
29363;DHT22;16349;53.672;10.014;2022-10-31T03:56:02;12.50;99.90
29363;DHT22;16349;53.672;10.014;2022-10-31T03:58:35;12.50;99.90
29363;DHT22;16349;53.672;10.014;2022-10-31T04:01:06;12.50;99.90
29363;DHT22;16349;53.672;10.014;2022-10-31T04:03:37;12.50;99.90
29363;DHT22;16349;53.672;10.014;2022-10-31T04:06:08;12.50;99.90
29363;DHT22;16349;53.672;10.014;2022-10-31T04:08:41;12.50;99.90
29363;DHT22;16349;53.672;10.014;2022-10-31T04:11:13;12.50;99.90
29363;DHT22;16349;53.672;10.014;2022-10-31T04:13:46;12.50;99.90
29363;DHT22;16349;53.672;10.014;2022-10-31T04:16:20;12.50;99.90
29363;DHT22;16349;53.672;10.014;2022-10-31T04:18:49;12.50;99.90
29363;DHT22;16349;53.672;10.014;2022-10-31T04:21:16;12.60;99.90
29363;DHT22;16349;53.672;10.014;2022-10-31T04:23:43;12.60;99.90
29363;DHT22;16349;53.672;10.014;2022-10-31T04:26:17;12.60;99.90
29363;DHT22;16349;53.672;10.014;2022-10-31T04:28:45;12.70;99.90
29363;DHT22;16349;53.672;10.014;2022-10-31T04:31:12;12.70;99.90
29363;DHT22;16349;53.672;10.014;2022-10-31T04:33:40;12.70;99.90
29363;DHT22;16349;53.672;10.014;2022-10-31T04:36:09;12.80;99.90
29363;DHT22;16349;53.672;10.014;2022-10-31T04:38:36;12.80;99.90
29363;DHT22;16349;53.672;10.014;2022-10-31T04:41:11;12.80;99.90
29363;DHT22;16349;53.672;10.014;2022-10-31T04:43:51;12.90;99.90
29363;DHT22;16349;53.672;10.014;2022-10-31T04:46:18;12.90;99.90
29363;DHT22;16349;53.672;10.014;2022-10-31T04:48:46;12.90;99.90
29363;DHT22;16349;53.672;10.014;2022-10-31T04:51:14;12.90;99.90
29363;DHT22;16349;53.672;10.014;2022-10-31T04:53:41;12.90;99.90
29363;DHT22;16349;53.672;10.014;2022-10-31T04:56:28;12.90;99.90
29363;DHT22;16349;53.672;10.014;2022-10-31T04:59:02;12.90;99.90
29363;DHT22;16349;53.672;10.014;2022-10-31T05:01:39;13.00;99.90
29363;DHT22;16349;53.672;10.014;2022-10-31T05:04:06;13.00;99.90
29363;DHT22;16349;53.672;10.014;2022-10-31T05:06:34;13.00;99.90
29363;DHT22;16349;53.672;10.014;2022-10-31T05:09:01;13.00;99.90
29363;DHT22;16349;53.672;10.014;2022-10-31T05:11:28;13.00;99.90
29363;DHT22;16349;53.672;10.014;2022-10-31T05:14:01;13.00;99.90
29363;DHT22;16349;53.672;10.014;2022-10-31T05:16:47;13.00;99.90
29363;DHT22;16349;53.672;10.014;2022-10-31T05:19:33;13.00;99.90
29363;DHT22;16349;53.672;10.014;2022-10-31T05:22:23;13.00;99.90
29363;DHT22;16349;53.672;10.014;2022-10-31T05:24:50;13.00;99.90
29363;DHT22;16349;53.672;10.014;2022-10-31T05:27:17;13.00;99.90
29363;DHT22;16349;53.672;10.014;2022-10-31T05:29:44;13.00;99.90
29363;DHT22;16349;53.672;10.014;2022-10-31T05:32:11;13.00;99.90
29363;DHT22;16349;53.672;10.014;2022-10-31T05:34:56;13.00;99.90
29363;DHT22;16349;53.672;10.014;2022-10-31T05:37:59;13.00;99.90
29363;DHT22;16349;53.672;10.014;2022-10-31T05:40:27;12.90;99.90
29363;DHT22;16349;53.672;10.014;2022-10-31T05:42:55;13.00;99.90
29363;DHT22;16349;53.672;10.014;2022-10-31T05:45:24;13.00;99.90
29363;DHT22;16349;53.672;10.014;2022-10-31T05:47:58;13.00;99.90
29363;DHT22;16349;53.672;10.014;2022-10-31T05:50:44;13.00;99.90
29363;DHT22;16349;53.672;10.014;2022-10-31T05:53:12;13.00;99.90
29363;DHT22;16349;53.672;10.014;2022-10-31T05:55:39;13.00;99.90
29363;DHT22;16349;53.672;10.014;2022-10-31T05:58:10;13.00;99.90
29363;DHT22;16349;53.672;10.014;2022-10-31T06:00:40;13.00;99.90
29363;DHT22;16349;53.672;10.014;2022-10-31T06:03:09;13.00;99.90
29363;DHT22;16349;53.672;10.014;2022-10-31T06:05:43;13.00;99.90
29363;DHT22;16349;53.672;10.014;2022-10-31T06:08:10;12.90;99.90
29363;DHT22;16349;53.672;10.014;2022-10-31T06:10:40;13.00;99.90
29363;DHT22;16349;53.672;10.014;2022-10-31T06:13:07;13.00;99.90
29363;DHT22;16349;53.672;10.014;2022-10-31T06:15:47;13.00;99.90
29363;DHT22;16349;53.672;10.014;2022-10-31T06:18:16;13.00;99.90
29363;DHT22;16349;53.672;10.014;2022-10-31T06:20:48;13.00;99.90
29363;DHT22;16349;53.672;10.014;2022-10-31T06:23:15;13.00;99.90
29363;DHT22;16349;53.672;10.014;2022-10-31T06:25:49;12.90;99.90
29363;DHT22;16349;53.672;10.014;2022-10-31T06:28:16;12.90;99.90
29363;DHT22;16349;53.672;10.014;2022-10-31T06:31:08;12.90;99.90
29363;DHT22;16349;53.672;10.014;2022-10-31T06:33:35;12.90;99.90
29363;DHT22;16349;53.672;10.014;2022-10-31T06:36:03;12.90;99.90
29363;DHT22;16349;53.672;10.014;2022-10-31T06:38:30;12.90;99.90
29363;DHT22;16349;53.672;10.014;2022-10-31T06:41:02;12.90;99.90
29363;DHT22;16349;53.672;10.014;2022-10-31T06:43:37;12.90;99.90
29363;DHT22;16349;53.672;10.014;2022-10-31T06:46:28;13.00;99.90
29363;DHT22;16349;53.672;10.014;2022-10-31T06:49:07;12.90;99.90
29363;DHT22;16349;53.672;10.014;2022-10-31T06:51:40;12.90;99.90
29363;DHT22;16349;53.672;10.014;2022-10-31T06:54:08;12.90;99.90
29363;DHT22;16349;53.672;10.014;2022-10-31T06:56:37;13.00;99.90
29363;DHT22;16349;53.672;10.014;2022-10-31T06:59:04;13.00;99.90
29363;DHT22;16349;53.672;10.014;2022-10-31T07:01:51;13.00;99.90
29363;DHT22;16349;53.672;10.014;2022-10-31T07:04:19;13.00;99.90
29363;DHT22;16349;53.672;10.014;2022-10-31T07:06:46;13.00;99.90
29363;DHT22;16349;53.672;10.014;2022-10-31T07:09:13;13.00;99.90
29363;DHT22;16349;53.672;10.014;2022-10-31T07:11:41;13.00;99.90
29363;DHT22;16349;53.672;10.014;2022-10-31T07:14:08;13.10;99.90
29363;DHT22;16349;53.672;10.014;2022-10-31T07:16:35;13.10;99.90
29363;DHT22;16349;53.672;10.014;2022-10-31T07:19:04;13.10;99.90
29363;DHT22;16349;53.672;10.014;2022-10-31T07:21:31;13.10;99.90
29363;DHT22;16349;53.672;10.014;2022-10-31T07:23:58;13.10;99.90
29363;DHT22;16349;53.672;10.014;2022-10-31T07:26:45;13.10;99.90
29363;DHT22;16349;53.672;10.014;2022-10-31T07:29:13;13.10;99.90
29363;DHT22;16349;53.672;10.014;2022-10-31T07:31:40;13.10;99.90
29363;DHT22;16349;53.672;10.014;2022-10-31T07:34:15;13.10;99.90
29363;DHT22;16349;53.672;10.014;2022-10-31T07:37:01;13.10;99.90
29363;DHT22;16349;53.672;10.014;2022-10-31T07:39:29;13.10;99.90
29363;DHT22;16349;53.672;10.014;2022-10-31T07:41:59;13.10;99.90
29363;DHT22;16349;53.672;10.014;2022-10-31T07:44:26;13.10;99.90
29363;DHT22;16349;53.672;10.014;2022-10-31T07:47:18;13.10;99.90
29363;DHT22;16349;53.672;10.014;2022-10-31T07:50:06;13.00;99.90
29363;DHT22;16349;53.672;10.014;2022-10-31T07:53:00;13.00;99.90
29363;DHT22;16349;53.672;10.014;2022-10-31T07:55:47;13.00;99.90
29363;DHT22;16349;53.672;10.014;2022-10-31T07:58:16;13.00;99.90
29363;DHT22;16349;53.672;10.014;2022-10-31T08:00:45;13.00;99.90
29363;DHT22;16349;53.672;10.014;2022-10-31T08:03:17;13.00;99.90
29363;DHT22;16349;53.672;10.014;2022-10-31T08:06:04;13.00;99.90
29363;DHT22;16349;53.672;10.014;2022-10-31T08:08:50;13.00;99.90
29363;DHT22;16349;53.672;10.014;2022-10-31T08:11:18;12.90;99.90
29363;DHT22;16349;53.672;10.014;2022-10-31T08:13:46;13.00;99.90
29363;DHT22;16349;53.672;10.014;2022-10-31T08:16:14;13.00;99.90
29363;DHT22;16349;53.672;10.014;2022-10-31T08:18:55;13.00;99.90
29363;DHT22;16349;53.672;10.014;2022-10-31T08:21:22;13.00;99.90
29363;DHT22;16349;53.672;10.014;2022-10-31T08:23:49;13.00;99.90
29363;DHT22;16349;53.672;10.014;2022-10-31T08:26:19;13.00;99.90
29363;DHT22;16349;53.672;10.014;2022-10-31T08:28:47;13.00;99.90
29363;DHT22;16349;53.672;10.014;2022-10-31T08:31:15;13.00;99.90
29363;DHT22;16349;53.672;10.014;2022-10-31T08:33:42;13.00;99.90
29363;DHT22;16349;53.672;10.014;2022-10-31T08:36:17;12.90;99.90
29363;DHT22;16349;53.672;10.014;2022-10-31T08:38:50;13.00;99.90
29363;DHT22;16349;53.672;10.014;2022-10-31T08:41:17;13.00;99.90
29363;DHT22;16349;53.672;10.014;2022-10-31T08:43:44;13.00;99.90
29363;DHT22;16349;53.672;10.014;2022-10-31T08:46:13;12.90;99.90
29363;DHT22;16349;53.672;10.014;2022-10-31T08:48:41;12.90;99.90
29363;DHT22;16349;53.672;10.014;2022-10-31T08:51:09;12.90;99.90
29363;DHT22;16349;53.672;10.014;2022-10-31T08:53:36;13.20;99.90
29363;DHT22;16349;53.672;10.014;2022-10-31T08:56:29;13.20;99.90
29363;DHT22;16349;53.672;10.014;2022-10-31T08:58:58;13.20;99.90
29363;DHT22;16349;53.672;10.014;2022-10-31T09:01:50;13.20;99.90
29363;DHT22;16349;53.672;10.014;2022-10-31T09:04:19;13.10;99.90
29363;DHT22;16349;53.672;10.014;2022-10-31T09:06:46;13.20;99.90
29363;DHT22;16349;53.672;10.014;2022-10-31T09:09:14;13.20;99.90
29363;DHT22;16349;53.672;10.014;2022-10-31T09:11:41;13.30;99.90
29363;DHT22;16349;53.672;10.014;2022-10-31T09:14:10;13.30;99.90
29363;DHT22;16349;53.672;10.014;2022-10-31T09:16:57;13.30;99.90
29363;DHT22;16349;53.672;10.014;2022-10-31T09:19:37;13.30;99.90
29363;DHT22;16349;53.672;10.014;2022-10-31T09:22:05;13.30;99.90
29363;DHT22;16349;53.672;10.014;2022-10-31T09:24:32;13.30;99.90
29363;DHT22;16349;53.672;10.014;2022-10-31T09:26:59;13.40;99.90
29363;DHT22;16349;53.672;10.014;2022-10-31T09:29:26;13.30;99.90
29363;DHT22;16349;53.672;10.014;2022-10-31T09:31:59;13.30;99.90
29363;DHT22;16349;53.672;10.014;2022-10-31T09:34:28;13.30;99.90
29363;DHT22;16349;53.672;10.014;2022-10-31T09:37:02;13.20;99.90
29363;DHT22;16349;53.672;10.014;2022-10-31T09:39:28;13.30;99.90
29363;DHT22;16349;53.672;10.014;2022-10-31T09:42:25;13.40;99.90
29363;DHT22;16349;53.672;10.014;2022-10-31T09:45:01;13.40;99.90
29363;DHT22;16349;53.672;10.014;2022-10-31T09:47:48;13.30;99.90
29363;DHT22;16349;53.672;10.014;2022-10-31T09:50:45;13.30;99.90
29363;DHT22;16349;53.672;10.014;2022-10-31T09:53:36;13.40;99.90
29363;DHT22;16349;53.672;10.014;2022-10-31T09:56:07;13.30;99.90
29363;DHT22;16349;53.672;10.014;2022-10-31T09:58:42;13.40;99.90
29363;DHT22;16349;53.672;10.014;2022-10-31T10:01:23;13.40;99.90
29363;DHT22;16349;53.672;10.014;2022-10-31T10:03:57;13.50;99.90
29363;DHT22;16349;53.672;10.014;2022-10-31T10:06:47;13.40;99.90
29363;DHT22;16349;53.672;10.014;2022-10-31T10:09:35;13.40;99.90
29363;DHT22;16349;53.672;10.014;2022-10-31T10:12:33;13.40;99.90
29363;DHT22;16349;53.672;10.014;2022-10-31T10:15:36;13.40;99.90
29363;DHT22;16349;53.672;10.014;2022-10-31T10:18:16;13.50;99.90
29363;DHT22;16349;53.672;10.014;2022-10-31T10:20:58;13.50;99.90
29363;DHT22;16349;53.672;10.014;2022-10-31T10:23:37;13.50;99.90
29363;DHT22;16349;53.672;10.014;2022-10-31T10:26:13;13.50;99.90
29363;DHT22;16349;53.672;10.014;2022-10-31T10:28:45;13.50;99.90
29363;DHT22;16349;53.672;10.014;2022-10-31T10:31:16;13.50;99.90
29363;DHT22;16349;53.672;10.014;2022-10-31T10:33:53;13.50;99.90
29363;DHT22;16349;53.672;10.014;2022-10-31T10:36:27;13.50;99.90
29363;DHT22;16349;53.672;10.014;2022-10-31T10:38:58;13.50;99.90
29363;DHT22;16349;53.672;10.014;2022-10-31T10:41:31;13.50;99.90
29363;DHT22;16349;53.672;10.014;2022-10-31T10:43:58;13.50;99.90
29363;DHT22;16349;53.672;10.014;2022-10-31T10:46:32;13.50;99.90
29363;DHT22;16349;53.672;10.014;2022-10-31T10:49:21;13.50;99.90
29363;DHT22;16349;53.672;10.014;2022-10-31T10:51:56;13.60;99.90
29363;DHT22;16349;53.672;10.014;2022-10-31T10:54:44;13.70;99.90
29363;DHT22;16349;53.672;10.014;2022-10-31T10:57:36;13.70;99.90
29363;DHT22;16349;53.672;10.014;2022-10-31T11:00:17;13.70;99.90
29363;DHT22;16349;53.672;10.014;2022-10-31T11:02:44;13.80;99.90
29363;DHT22;16349;53.672;10.014;2022-10-31T11:05:21;13.80;99.90
29363;DHT22;16349;53.672;10.014;2022-10-31T11:07:50;13.90;99.90
29363;DHT22;16349;53.672;10.014;2022-10-31T11:10:18;13.80;99.90
29363;DHT22;16349;53.672;10.014;2022-10-31T11:12:56;13.90;99.90
29363;DHT22;16349;53.672;10.014;2022-10-31T11:15:26;13.90;99.90
29363;DHT22;16349;53.672;10.014;2022-10-31T11:17:55;13.90;99.90
29363;DHT22;16349;53.672;10.014;2022-10-31T11:20:29;14.00;99.90
29363;DHT22;16349;53.672;10.014;2022-10-31T11:23:04;14.00;99.90
29363;DHT22;16349;53.672;10.014;2022-10-31T11:25:31;14.00;99.90
29363;DHT22;16349;53.672;10.014;2022-10-31T11:27:59;14.00;99.90
29363;DHT22;16349;53.672;10.014;2022-10-31T11:30:27;14.00;99.90
29363;DHT22;16349;53.672;10.014;2022-10-31T11:32:54;14.00;99.90
29363;DHT22;16349;53.672;10.014;2022-10-31T11:35:23;14.10;99.90
29363;DHT22;16349;53.672;10.014;2022-10-31T11:37:52;14.20;99.90
29363;DHT22;16349;53.672;10.014;2022-10-31T11:40:22;14.20;99.90
29363;DHT22;16349;53.672;10.014;2022-10-31T11:42:54;14.30;99.90
29363;DHT22;16349;53.672;10.014;2022-10-31T11:45:29;14.30;99.90
29363;DHT22;16349;53.672;10.014;2022-10-31T11:47:57;14.30;99.90
29363;DHT22;16349;53.672;10.014;2022-10-31T11:50:33;14.30;99.90
29363;DHT22;16349;53.672;10.014;2022-10-31T11:53:02;14.30;99.90
29363;DHT22;16349;53.672;10.014;2022-10-31T11:55:33;14.30;99.90
29363;DHT22;16349;53.672;10.014;2022-10-31T11:58:00;14.30;99.90
29363;DHT22;16349;53.672;10.014;2022-10-31T12:00:29;14.20;99.90
29363;DHT22;16349;53.672;10.014;2022-10-31T12:03:12;14.30;99.90
29363;DHT22;16349;53.672;10.014;2022-10-31T12:05:42;14.30;99.90
29363;DHT22;16349;53.672;10.014;2022-10-31T12:08:12;14.30;99.90
29363;DHT22;16349;53.672;10.014;2022-10-31T12:10:54;14.30;99.90
29363;DHT22;16349;53.672;10.014;2022-10-31T12:13:32;14.30;99.90
29363;DHT22;16349;53.672;10.014;2022-10-31T12:16:06;14.40;99.90
29363;DHT22;16349;53.672;10.014;2022-10-31T12:18:48;14.50;99.90
29363;DHT22;16349;53.672;10.014;2022-10-31T12:21:27;14.50;99.90
29363;DHT22;16349;53.672;10.014;2022-10-31T12:24:08;14.50;99.90
29363;DHT22;16349;53.672;10.014;2022-10-31T12:26:45;14.60;99.90
29363;DHT22;16349;53.672;10.014;2022-10-31T12:29:30;14.60;99.90
29363;DHT22;16349;53.672;10.014;2022-10-31T12:32:13;14.80;99.90
29363;DHT22;16349;53.672;10.014;2022-10-31T12:35:05;14.80;99.90
29363;DHT22;16349;53.672;10.014;2022-10-31T12:37:46;14.70;99.90
29363;DHT22;16349;53.672;10.014;2022-10-31T12:40:38;14.70;99.90
29363;DHT22;16349;53.672;10.014;2022-10-31T12:43:22;14.70;99.90
29363;DHT22;16349;53.672;10.014;2022-10-31T12:45:53;14.70;99.90
29363;DHT22;16349;53.672;10.014;2022-10-31T12:48:38;14.70;99.90
29363;DHT22;16349;53.672;10.014;2022-10-31T12:51:13;14.80;99.90
29363;DHT22;16349;53.672;10.014;2022-10-31T12:53:54;14.80;99.90
29363;DHT22;16349;53.672;10.014;2022-10-31T12:56:35;14.90;99.90
29363;DHT22;16349;53.672;10.014;2022-10-31T12:59:09;14.90;99.90
29363;DHT22;16349;53.672;10.014;2022-10-31T13:01:40;14.90;99.90
29363;DHT22;16349;53.672;10.014;2022-10-31T13:04:14;15.00;99.90
29363;DHT22;16349;53.672;10.014;2022-10-31T13:06:48;15.00;99.90
29363;DHT22;16349;53.672;10.014;2022-10-31T13:09:19;15.10;99.90
29363;DHT22;16349;53.672;10.014;2022-10-31T13:11:50;15.20;99.90
29363;DHT22;16349;53.672;10.014;2022-10-31T13:14:26;15.30;99.90
29363;DHT22;16349;53.672;10.014;2022-10-31T13:16:56;15.40;99.90
29363;DHT22;16349;53.672;10.014;2022-10-31T13:19:25;15.40;99.90
29363;DHT22;16349;53.672;10.014;2022-10-31T13:21:59;15.40;99.90
29363;DHT22;16349;53.672;10.014;2022-10-31T13:24:33;15.40;99.90
29363;DHT22;16349;53.672;10.014;2022-10-31T13:27:03;15.40;99.90
29363;DHT22;16349;53.672;10.014;2022-10-31T13:29:40;15.40;99.90
29363;DHT22;16349;53.672;10.014;2022-10-31T13:32:10;15.40;99.90
29363;DHT22;16349;53.672;10.014;2022-10-31T13:34:40;15.30;99.90
29363;DHT22;16349;53.672;10.014;2022-10-31T13:37:15;15.30;99.90
29363;DHT22;16349;53.672;10.014;2022-10-31T13:39:58;15.20;99.90
29363;DHT22;16349;53.672;10.014;2022-10-31T13:42:41;15.10;99.90
29363;DHT22;16349;53.672;10.014;2022-10-31T13:45:16;15.10;99.90
29363;DHT22;16349;53.672;10.014;2022-10-31T13:47:55;15.10;99.90
29363;DHT22;16349;53.672;10.014;2022-10-31T13:50:24;15.20;99.90
29363;DHT22;16349;53.672;10.014;2022-10-31T13:52:51;15.30;99.90
29363;DHT22;16349;53.672;10.014;2022-10-31T13:55:37;15.30;99.90
29363;DHT22;16349;53.672;10.014;2022-10-31T13:58:04;15.40;99.90
29363;DHT22;16349;53.672;10.014;2022-10-31T14:00:32;15.30;99.90
29363;DHT22;16349;53.672;10.014;2022-10-31T14:03:00;15.30;99.90
29363;DHT22;16349;53.672;10.014;2022-10-31T14:05:30;15.50;99.90
29363;DHT22;16349;53.672;10.014;2022-10-31T14:08:00;15.60;99.90
29363;DHT22;16349;53.672;10.014;2022-10-31T14:10:29;15.40;99.90
29363;DHT22;16349;53.672;10.014;2022-10-31T14:13:05;15.40;99.90
29363;DHT22;16349;53.672;10.014;2022-10-31T14:15:36;15.50;99.90
29363;DHT22;16349;53.672;10.014;2022-10-31T14:18:05;15.60;99.90
29363;DHT22;16349;53.672;10.014;2022-10-31T14:20:37;15.70;99.90
29363;DHT22;16349;53.672;10.014;2022-10-31T14:26:29;15.80;99.90
29363;DHT22;16349;53.672;10.014;2022-10-31T14:28:59;15.60;99.90
29363;DHT22;16349;53.672;10.014;2022-10-31T14:31:35;15.60;99.90
29363;DHT22;16349;53.672;10.014;2022-10-31T14:34:18;15.50;99.90
29363;DHT22;16349;53.672;10.014;2022-10-31T14:36:55;15.50;99.90
29363;DHT22;16349;53.672;10.014;2022-10-31T14:39:27;15.30;99.90
29363;DHT22;16349;53.672;10.014;2022-10-31T14:42:06;15.20;99.90
29363;DHT22;16349;53.672;10.014;2022-10-31T14:44:59;15.10;99.90
29363;DHT22;16349;53.672;10.014;2022-10-31T14:47:36;15.10;99.90
29363;DHT22;16349;53.672;10.014;2022-10-31T14:50:23;15.00;99.90
29363;DHT22;16349;53.672;10.014;2022-10-31T14:52:53;15.00;99.90
29363;DHT22;16349;53.672;10.014;2022-10-31T14:55:23;15.00;99.90
29363;DHT22;16349;53.672;10.014;2022-10-31T14:57:54;14.90;99.90
29363;DHT22;16349;53.672;10.014;2022-10-31T15:00:23;14.90;99.90
29363;DHT22;16349;53.672;10.014;2022-10-31T15:03:04;14.80;99.90
29363;DHT22;16349;53.672;10.014;2022-10-31T15:05:34;14.80;99.90
29363;DHT22;16349;53.672;10.014;2022-10-31T15:08:13;14.80;99.90
29363;DHT22;16349;53.672;10.014;2022-10-31T15:10:44;14.70;99.90
29363;DHT22;16349;53.672;10.014;2022-10-31T15:13:18;14.70;99.90
29363;DHT22;16349;53.672;10.014;2022-10-31T15:15:45;14.60;99.90
29363;DHT22;16349;53.672;10.014;2022-10-31T15:18:16;14.60;99.90
29363;DHT22;16349;53.672;10.014;2022-10-31T15:20:45;14.60;99.90
29363;DHT22;16349;53.672;10.014;2022-10-31T15:23:16;14.60;99.90
29363;DHT22;16349;53.672;10.014;2022-10-31T15:25:44;14.50;99.90
29363;DHT22;16349;53.672;10.014;2022-10-31T15:28:15;14.50;99.90
29363;DHT22;16349;53.672;10.014;2022-10-31T15:30:50;14.40;99.90
29363;DHT22;16349;53.672;10.014;2022-10-31T15:33:22;14.40;99.90
29363;DHT22;16349;53.672;10.014;2022-10-31T15:35:58;14.40;99.90
29363;DHT22;16349;53.672;10.014;2022-10-31T15:38:25;14.40;99.90
29363;DHT22;16349;53.672;10.014;2022-10-31T15:40:54;14.40;99.90
29363;DHT22;16349;53.672;10.014;2022-10-31T15:43:22;14.40;99.90
29363;DHT22;16349;53.672;10.014;2022-10-31T15:45:49;14.40;99.90
29363;DHT22;16349;53.672;10.014;2022-10-31T15:48:18;14.30;99.90
29363;DHT22;16349;53.672;10.014;2022-10-31T15:50:51;14.20;99.90
29363;DHT22;16349;53.672;10.014;2022-10-31T15:53:22;14.20;99.90
29363;DHT22;16349;53.672;10.014;2022-10-31T15:55:53;14.20;99.90